createdAt,value
2023-05-26T00:00:01.597Z,52.15
2023-05-26T00:01:01.624Z,52.23
2023-05-26T00:02:00.638Z,52.07
2023-05-26T00:03:01.804Z,52.12
2023-05-26T00:04:00.760Z,52.17
2023-05-26T00:05:01.749Z,52.09
2023-05-26T00:06:01.849Z,52.20
2023-05-26T00:07:01.852Z,52.16
2023-05-26T00:08:01.889Z,52.15
2023-05-26T00:09:01.989Z,52.08
2023-05-26T00:10:00.974Z,52.12
2023-05-26T00:11:02.082Z,52.11
2023-05-26T00:12:01.068Z,52.18
2023-05-26T00:13:01.130Z,52.20
2023-05-26T00:14:02.207Z,52.23
2023-05-26T00:15:01.205Z,52.22
2023-05-26T00:16:01.240Z,52.28
2023-05-26T00:17:01.272Z,52.27
2023-05-26T00:18:01.365Z,52.21
2023-05-26T00:19:02.379Z,52.18
2023-05-26T00:20:02.485Z,52.13
2023-05-26T00:21:02.681Z,52.11
2023-05-26T00:22:01.525Z,52.19
2023-05-26T00:23:02.545Z,52.13
2023-05-26T00:24:02.585Z,52.22
2023-05-26T00:25:01.662Z,52.13
2023-05-26T00:26:02.678Z,52.09
2023-05-26T00:27:01.724Z,52.19
2023-05-26T00:28:02.749Z,52.09
2023-05-26T00:29:02.784Z,52.24
2023-05-26T00:30:02.860Z,52.24
2023-05-26T00:31:02.906Z,52.26
2023-05-26T00:32:02.911Z,52.12
2023-05-26T00:33:03.046Z,52.20
2023-05-26T00:34:02.012Z,52.19
2023-05-26T00:35:03.059Z,52.13
2023-05-26T00:36:02.112Z,52.25
2023-05-26T00:37:03.142Z,52.19
2023-05-26T00:38:03.285Z,52.30
2023-05-26T00:39:03.229Z,52.26
2023-05-26T00:40:03.280Z,52.22
2023-05-26T00:41:03.290Z,52.19
2023-05-26T00:42:03.344Z,52.26
2023-05-26T00:43:02.398Z,52.19
2023-05-26T00:44:03.429Z,52.18
2023-05-26T00:45:03.465Z,52.36
2023-05-26T00:46:03.545Z,52.26
2023-05-26T00:47:03.653Z,52.24
2023-05-26T00:48:02.587Z,52.26
2023-05-26T00:49:03.625Z,52.17
2023-05-26T00:50:03.696Z,52.26
2023-05-26T00:51:03.724Z,52.22
2023-05-26T00:52:03.927Z,52.22
2023-05-26T00:53:03.799Z,52.22
2023-05-26T00:54:02.852Z,52.22
2023-05-26T00:55:02.871Z,52.21
2023-05-26T00:56:03.924Z,52.27
2023-05-26T00:57:04.005Z,52.26
2023-05-26T00:58:04.023Z,52.25
2023-05-26T00:59:04.061Z,52.30
2023-05-26T01:00:03.127Z,52.27
2023-05-26T01:01:04.190Z,52.37
2023-05-26T01:02:03.220Z,52.28
2023-05-26T01:03:03.304Z,52.23
2023-05-26T01:04:04.319Z,52.29
2023-05-26T01:05:03.300Z,52.26
2023-05-26T01:06:04.333Z,52.25
2023-05-26T01:07:04.389Z,52.30
2023-05-26T01:08:04.405Z,52.33
2023-05-26T01:09:04.472Z,52.28
2023-05-26T01:10:04.511Z,52.20
2023-05-26T01:11:03.542Z,52.20
2023-05-26T01:12:04.591Z,52.20
2023-05-26T01:13:04.623Z,52.21
2023-05-26T01:14:03.658Z,52.24
2023-05-26T01:15:04.744Z,52.13
2023-05-26T01:16:04.775Z,52.24
2023-05-26T01:17:04.498Z,52.26
2023-05-26T01:18:05.017Z,52.19
2023-05-26T01:19:04.887Z,52.20
2023-05-26T01:20:04.937Z,52.26
2023-05-26T01:21:04.978Z,52.13
2023-05-26T01:22:05.037Z,52.20
2023-05-26T01:23:04.126Z,52.20
2023-05-26T01:24:05.127Z,52.18
2023-05-26T01:25:05.175Z,52.17
2023-05-26T01:26:04.217Z,52.12
2023-05-26T01:27:05.228Z,52.17
2023-05-26T01:28:05.286Z,52.24
2023-05-26T01:29:04.336Z,52.19
2023-05-26T01:30:05.362Z,52.20
2023-05-26T01:31:05.413Z,52.21
2023-05-26T01:32:04.467Z,52.20
2023-05-26T01:33:05.536Z,52.21
2023-05-26T01:34:04.644Z,52.24
2023-05-26T01:35:04.557Z,52.25
2023-05-26T01:36:04.608Z,52.29
2023-05-26T01:37:05.640Z,52.17
2023-05-26T01:38:04.688Z,52.30
2023-05-26T01:39:04.759Z,52.22
2023-05-26T01:40:05.750Z,52.32
2023-05-26T01:41:05.813Z,52.30
2023-05-26T01:42:04.833Z,52.24
2023-05-26T01:43:04.856Z,52.18
2023-05-26T01:44:05.977Z,52.20
2023-05-26T01:45:05.984Z,52.18
2023-05-26T01:46:05.043Z,52.26
2023-05-26T01:47:06.093Z,52.21
2023-05-26T01:48:06.160Z,52.28
2023-05-26T01:49:05.138Z,52.19
2023-05-26T01:50:06.147Z,52.21
2023-05-26T01:51:06.198Z,52.22
2023-05-26T01:52:05.221Z,52.26
2023-05-26T01:53:06.308Z,52.19
2023-05-26T01:54:05.305Z,52.18
2023-05-26T01:55:06.349Z,52.22
2023-05-26T01:56:06.399Z,52.27
2023-05-26T01:57:06.480Z,52.26
2023-05-26T01:58:06.518Z,52.27
2023-05-26T01:59:06.634Z,52.21
2023-05-26T02:00:06.550Z,52.27
2023-05-26T02:01:06.610Z,52.15
2023-05-26T02:02:06.902Z,52.16
2023-05-26T02:03:06.833Z,52.06
2023-05-26T02:04:06.871Z,52.14
2023-05-26T02:05:06.753Z,52.21
2023-05-26T02:06:06.785Z,52.37
2023-05-26T02:07:06.882Z,52.26
2023-05-26T02:08:05.851Z,52.33
2023-05-26T02:09:05.932Z,52.28
2023-05-26T02:10:06.982Z,52.26
2023-05-26T02:11:06.041Z,52.31
2023-05-26T02:12:07.080Z,52.26
2023-05-26T02:13:07.239Z,52.24
2023-05-26T02:14:07.145Z,52.31
2023-05-26T02:15:07.236Z,52.24
2023-05-26T02:16:06.325Z,52.28
2023-05-26T02:17:07.306Z,52.26
2023-05-26T02:18:07.350Z,52.16
2023-05-26T02:19:07.446Z,52.20
2023-05-26T02:20:06.517Z,52.21
2023-05-26T02:21:07.483Z,52.20
2023-05-26T02:22:07.546Z,52.21
2023-05-26T02:23:06.557Z,52.19
2023-05-26T02:24:07.618Z,52.07
2023-05-26T02:25:06.660Z,52.14
2023-05-26T02:26:06.695Z,52.18
2023-05-26T02:27:06.810Z,52.26
2023-05-26T02:28:07.817Z,52.09
2023-05-26T02:29:06.833Z,52.20
2023-05-26T02:30:07.889Z,52.28
2023-05-26T02:31:07.920Z,52.18
2023-05-26T02:32:08.010Z,52.24
2023-05-26T02:33:08.055Z,52.17
2023-05-26T02:34:08.072Z,52.27
2023-05-26T02:35:07.111Z,52.30
2023-05-26T02:36:07.128Z,52.22
2023-05-26T02:37:08.197Z,52.20
2023-05-26T02:38:08.232Z,52.24
2023-05-26T02:39:08.226Z,52.17
2023-05-26T02:40:07.291Z,52.10
2023-05-26T02:41:08.311Z,52.25
2023-05-26T02:42:08.384Z,52.11
2023-05-26T02:43:08.417Z,52.25
2023-05-26T02:44:08.446Z,52.24
2023-05-26T02:45:08.528Z,52.21
2023-05-26T02:46:08.633Z,52.11
2023-05-26T02:47:07.576Z,52.10
2023-05-26T02:48:08.648Z,52.07
2023-05-26T02:49:08.670Z,52.16
2023-05-26T02:50:08.711Z,52.10
2023-05-26T02:51:08.725Z,52.15
2023-05-26T02:52:07.770Z,52.19
2023-05-26T02:53:08.808Z,52.21
2023-05-26T02:54:08.857Z,52.14
2023-05-26T02:55:07.908Z,52.14
2023-05-26T02:56:08.914Z,52.25
2023-05-26T02:57:07.952Z,52.17
2023-05-26T02:58:09.058Z,52.18
2023-05-26T02:59:08.025Z,52.20
2023-05-26T03:00:08.082Z,52.14
2023-05-26T03:01:08.215Z,52.11
2023-05-26T03:02:08.172Z,52.27
2023-05-26T03:03:09.354Z,52.26
2023-05-26T03:04:09.274Z,52.10
2023-05-26T03:05:09.334Z,52.17
2023-05-26T03:06:09.373Z,52.15
2023-05-26T03:07:09.420Z,52.24
2023-05-26T03:08:08.438Z,52.15
2023-05-26T03:09:09.508Z,52.10
2023-05-26T03:10:09.535Z,52.15
2023-05-26T03:11:11.648Z,52.18
2023-05-26T03:12:08.560Z,52.21
2023-05-26T03:13:08.557Z,52.20
2023-05-26T03:14:09.550Z,52.15
2023-05-26T03:15:09.554Z,52.22
2023-05-26T03:16:09.549Z,52.15
2023-05-26T03:17:08.611Z,52.31
2023-05-26T03:18:09.508Z,52.15
2023-05-26T03:19:09.553Z,52.31
2023-05-26T03:20:08.554Z,52.15
2023-05-26T03:21:46.881Z,52.19
2023-05-26T03:22:40.341Z,52.23
2023-05-26T03:23:09.491Z,52.23
2023-05-26T03:24:09.509Z,52.20
2023-05-26T03:25:09.470Z,52.16
2023-05-26T03:26:08.459Z,52.18
2023-05-26T03:27:09.453Z,52.28
2023-05-26T03:28:08.469Z,52.18
2023-05-26T03:29:08.459Z,52.14
2023-05-26T03:30:08.441Z,52.15
2023-05-26T03:31:08.499Z,52.06
2023-05-26T03:32:08.467Z,52.12
2023-05-26T03:33:08.440Z,52.15
2023-05-26T03:34:08.398Z,52.22
2023-05-26T03:35:08.411Z,52.12
2023-05-26T03:36:09.451Z,52.24
2023-05-26T03:37:09.400Z,52.18
2023-05-26T03:38:08.394Z,52.10
2023-05-26T03:39:08.399Z,52.12
2023-05-26T03:40:08.406Z,52.17
2023-05-26T03:41:08.352Z,52.17
2023-05-26T03:42:09.376Z,52.17
2023-05-26T03:43:09.364Z,52.02
2023-05-26T03:44:08.326Z,52.04
2023-05-26T03:45:09.359Z,52.11
2023-05-26T03:46:09.344Z,52.09
2023-05-26T03:47:09.340Z,52.12
2023-05-26T03:48:08.367Z,52.11
2023-05-26T03:49:09.321Z,52.08
2023-05-26T03:50:08.298Z,52.16
2023-05-26T03:51:09.292Z,52.14
2023-05-26T03:52:08.292Z,52.09
2023-05-26T03:53:08.292Z,52.09
2023-05-26T03:54:09.299Z,52.13
2023-05-26T03:55:08.338Z,52.18
2023-05-26T03:56:09.372Z,52.16
2023-05-26T03:57:09.436Z,52.14
2023-05-26T03:58:08.489Z,52.17
2023-05-26T03:59:09.499Z,52.08
2023-05-26T04:00:09.596Z,52.12
2023-05-26T04:01:09.566Z,52.06
2023-05-26T04:02:08.635Z,52.19
2023-05-26T04:03:08.685Z,52.06
2023-05-26T04:04:09.829Z,52.08
2023-05-26T04:05:08.720Z,52.23
2023-05-26T04:06:08.744Z,52.19
2023-05-26T04:07:08.778Z,52.19
2023-05-26T04:08:09.814Z,52.11
2023-05-26T04:09:08.882Z,52.23
2023-05-26T04:10:08.912Z,52.02
2023-05-26T04:11:09.943Z,52.14
2023-05-26T04:12:09.148Z,52.17
2023-05-26T04:13:09.046Z,52.12
2023-05-26T04:14:10.068Z,52.08
2023-05-26T04:15:09.093Z,52.06
2023-05-26T04:16:10.155Z,52.01
2023-05-26T04:17:09.172Z,52.11
2023-05-26T04:18:09.236Z,52.08
2023-05-26T04:19:09.263Z,52.09
2023-05-26T04:20:10.365Z,52.09
2023-05-26T04:21:09.396Z,52.10
2023-05-26T04:22:10.413Z,52.01
2023-05-26T04:23:10.509Z,52.18
2023-05-26T04:24:10.461Z,52.08
2023-05-26T04:25:10.531Z,52.19
2023-05-26T04:26:10.544Z,52.15
2023-05-26T04:27:10.792Z,52.17
2023-05-26T04:28:09.653Z,52.15
2023-05-26T04:29:09.683Z,52.11
2023-05-26T04:30:09.735Z,52.13
2023-05-26T04:31:09.770Z,52.05
2023-05-26T04:32:10.871Z,52.10
2023-05-26T04:33:09.949Z,52.04
2023-05-26T04:34:09.916Z,52.03
2023-05-26T04:35:09.944Z,52.02
2023-05-26T04:36:10.003Z,52.10
2023-05-26T04:37:11.056Z,52.02
2023-05-26T04:38:11.046Z,51.96
2023-05-26T04:39:11.091Z,52.00
2023-05-26T04:40:11.158Z,51.98
2023-05-26T04:41:11.169Z,52.00
2023-05-26T04:42:10.231Z,52.02
2023-05-26T04:43:11.785Z,51.94
2023-05-26T04:44:11.289Z,52.08
2023-05-26T04:45:14.205Z,52.06
2023-05-26T04:46:11.370Z,52.04
2023-05-26T04:47:11.321Z,52.11
2023-05-26T04:48:10.418Z,52.08
2023-05-26T04:49:11.365Z,52.02
2023-05-26T04:50:10.309Z,52.14
2023-05-26T04:51:11.351Z,52.10
2023-05-26T04:52:10.304Z,52.06
2023-05-26T04:53:11.290Z,52.12
2023-05-26T04:54:11.327Z,52.15
2023-05-26T04:55:11.255Z,52.03
2023-05-26T04:56:10.265Z,52.06
2023-05-26T04:57:11.260Z,52.05
2023-05-26T04:58:10.261Z,51.97
2023-05-26T04:59:11.268Z,52.08
2023-05-26T05:00:10.219Z,52.13
2023-05-26T05:01:11.480Z,52.09
2023-05-26T05:02:10.318Z,52.12
2023-05-26T05:03:10.288Z,52.19
2023-05-26T05:04:10.341Z,52.06
2023-05-26T05:05:11.313Z,51.95
2023-05-26T05:06:10.376Z,51.99
2023-05-26T05:07:11.399Z,52.06
2023-05-26T05:08:11.453Z,52.01
2023-05-26T05:09:11.466Z,52.05
2023-05-26T05:10:11.541Z,52.08
2023-05-26T05:11:11.556Z,52.03
2023-05-26T05:12:11.583Z,52.11
2023-05-26T05:13:11.624Z,52.10
2023-05-26T05:14:11.698Z,52.00
2023-05-26T05:15:10.707Z,51.95
2023-05-26T05:16:11.845Z,52.01
2023-05-26T05:17:10.801Z,52.05
2023-05-26T05:18:11.808Z,52.05
2023-05-26T05:19:11.910Z,52.02
2023-05-26T05:20:14.974Z,51.95
2023-05-26T05:21:11.955Z,51.93
2023-05-26T05:22:10.916Z,51.93
2023-05-26T05:23:11.883Z,52.01
2023-05-26T05:24:11.878Z,51.99
2023-05-26T05:25:11.909Z,51.88
2023-05-26T05:26:11.882Z,51.85
2023-05-26T05:27:11.874Z,51.90
2023-05-26T05:28:10.853Z,52.00
2023-05-26T05:29:11.842Z,51.85
2023-05-26T05:30:11.831Z,52.38
2023-05-26T05:31:10.884Z,52.58
2023-05-26T05:32:12.020Z,52.38
2023-05-26T05:33:11.932Z,52.41
2023-05-26T05:34:11.862Z,52.07
2023-05-26T05:35:11.976Z,52.10
2023-05-26T05:36:11.970Z,51.93
2023-05-26T05:37:11.959Z,51.69
2023-05-26T05:38:12.066Z,51.44
2023-05-26T05:39:12.063Z,51.29
2023-05-26T05:40:11.119Z,51.03
2023-05-26T05:41:11.171Z,51.15
2023-05-26T05:42:12.371Z,51.43
2023-05-26T05:43:11.366Z,51.47
2023-05-26T05:44:11.749Z,52.15
2023-05-26T05:45:12.411Z,52.07
2023-05-26T05:46:12.441Z,52.49
2023-05-26T05:47:11.523Z,52.20
2023-05-26T05:48:12.789Z,52.25
2023-05-26T05:49:12.596Z,52.81
2023-05-26T05:50:13.037Z,52.22
2023-05-26T05:51:12.709Z,52.32
2023-05-26T05:52:11.739Z,52.20
2023-05-26T05:53:11.809Z,52.15
2023-05-26T05:54:12.868Z,52.28
2023-05-26T05:55:12.857Z,52.73
2023-05-26T05:56:11.876Z,52.79
2023-05-26T05:57:12.032Z,52.40
2023-05-26T05:58:13.007Z,52.85
2023-05-26T05:59:12.911Z,52.93
2023-05-26T06:00:12.936Z,53.25
2023-05-26T06:01:12.307Z,53.47
2023-05-26T06:02:13.027Z,53.20
2023-05-26T06:03:13.130Z,53.48
2023-05-26T06:04:13.084Z,54.06
2023-05-26T06:05:12.984Z,54.03
2023-05-26T06:06:12.982Z,53.98
2023-05-26T06:07:12.067Z,53.27
2023-05-26T06:08:12.067Z,53.07
2023-05-26T06:09:13.086Z,53.75
2023-05-26T06:10:13.111Z,52.53
2023-05-26T06:11:12.126Z,52.94
2023-05-26T06:12:14.694Z,53.27
2023-05-26T06:13:13.191Z,52.86
2023-05-26T06:14:12.174Z,53.36
2023-05-26T06:15:13.134Z,53.38
2023-05-26T06:16:13.190Z,53.54
2023-05-26T06:17:12.265Z,53.80
2023-05-26T06:18:13.236Z,53.41
2023-05-26T06:19:13.123Z,53.54
2023-05-26T06:20:12.251Z,53.75
2023-05-26T06:21:13.146Z,53.84
2023-05-26T06:22:12.119Z,53.63
2023-05-26T06:23:13.099Z,53.66
2023-05-26T06:24:13.088Z,53.81
2023-05-26T06:25:12.134Z,53.78
2023-05-26T06:26:13.129Z,54.33
2023-05-26T06:27:15.817Z,54.05
2023-05-26T06:28:13.085Z,53.99
2023-05-26T06:29:13.090Z,54.18
2023-05-26T06:30:13.041Z,54.01
2023-05-26T06:31:13.102Z,53.92
2023-05-26T06:32:12.034Z,54.12
2023-05-26T06:33:13.069Z,54.28
2023-05-26T06:34:13.140Z,54.31
2023-05-26T06:35:13.032Z,54.35
2023-05-26T06:36:13.069Z,54.40
2023-05-26T06:37:13.028Z,54.78
2023-05-26T06:38:12.048Z,54.76
2023-05-26T06:39:13.008Z,54.72
2023-05-26T06:40:12.978Z,54.76
2023-05-26T06:41:12.985Z,55.03
2023-05-26T06:42:13.018Z,54.71
2023-05-26T06:43:13.108Z,55.10
2023-05-26T06:44:12.948Z,55.06
2023-05-26T06:45:13.011Z,55.71
2023-05-26T06:46:11.904Z,56.44
2023-05-26T06:47:13.003Z,55.12
2023-05-26T06:48:12.864Z,55.21
2023-05-26T06:49:11.991Z,54.83
2023-05-26T06:50:12.958Z,55.84
2023-05-26T06:51:12.962Z,55.13
2023-05-26T06:52:13.804Z,54.71
2023-05-26T06:53:13.010Z,54.75
2023-05-26T06:54:13.324Z,54.70
2023-05-26T06:55:13.104Z,55.04
2023-05-26T06:56:12.165Z,54.88
2023-05-26T06:57:13.186Z,56.11
2023-05-26T06:58:13.223Z,55.62
2023-05-26T06:59:13.284Z,54.37
2023-05-26T07:00:13.335Z,54.13
2023-05-26T07:01:13.353Z,54.30
2023-05-26T07:02:13.536Z,53.55
2023-05-26T07:03:13.484Z,53.16
2023-05-26T07:04:13.477Z,53.76
2023-05-26T07:05:12.537Z,54.17
2023-05-26T07:06:13.528Z,54.75
2023-05-26T07:07:12.596Z,54.17
2023-05-26T07:08:12.595Z,54.84
2023-05-26T07:09:13.611Z,54.24
2023-05-26T07:10:13.606Z,53.67
2023-05-26T07:11:13.612Z,53.55
2023-05-26T07:12:13.741Z,54.20
2023-05-26T07:13:13.617Z,53.53
2023-05-26T07:14:13.649Z,54.32
2023-05-26T07:15:13.236Z,53.90
2023-05-26T07:16:14.015Z,53.83
2023-05-26T07:17:14.054Z,54.22
2023-05-26T07:18:14.051Z,54.09
2023-05-26T07:19:13.879Z,53.86
2023-05-26T07:20:13.910Z,53.90
2023-05-26T07:21:12.926Z,53.91
2023-05-26T07:22:13.928Z,53.96
2023-05-26T07:23:13.939Z,53.96
2023-05-26T07:24:13.176Z,54.00
2023-05-26T07:25:12.982Z,53.92
2023-05-26T07:26:14.018Z,54.10
2023-05-26T07:27:14.026Z,53.88
2023-05-26T07:28:14.136Z,53.76
2023-05-26T07:29:14.168Z,53.88
2023-05-26T07:30:13.136Z,53.89
2023-05-26T07:31:14.200Z,54.03
2023-05-26T07:32:13.215Z,54.06
2023-05-26T07:33:14.267Z,54.36
2023-05-26T07:34:14.284Z,54.25
2023-05-26T07:35:13.302Z,54.40
2023-05-26T07:36:14.282Z,54.69
2023-05-26T07:37:13.268Z,54.45
2023-05-26T07:38:13.378Z,54.43
2023-05-26T07:39:14.345Z,54.71
2023-05-26T07:40:13.310Z,54.46
2023-05-26T07:41:13.373Z,54.77
2023-05-26T07:42:14.367Z,55.02
2023-05-26T07:43:14.365Z,54.98
2023-05-26T07:44:14.393Z,55.16
2023-05-26T07:45:13.413Z,55.09
2023-05-26T07:46:13.544Z,55.86
2023-05-26T07:47:14.566Z,55.71
2023-05-26T07:48:15.499Z,53.17
2023-05-26T07:49:14.910Z,53.78
2023-05-26T07:50:14.489Z,54.84
2023-05-26T07:51:14.482Z,54.43
2023-05-26T07:52:14.528Z,54.55
2023-05-26T07:53:14.605Z,55.06
2023-05-26T07:54:14.828Z,54.85
2023-05-26T07:55:14.621Z,54.51
2023-05-26T07:56:13.677Z,54.02
2023-05-26T07:57:25.854Z,53.95
2023-05-26T07:58:14.754Z,53.88
2023-05-26T07:59:15.641Z,53.81
2023-05-26T08:00:15.013Z,54.10
2023-05-26T08:01:13.664Z,53.82
2023-05-26T08:02:14.690Z,53.99
2023-05-26T08:03:13.800Z,53.96
2023-05-26T08:04:14.668Z,53.79
2023-05-26T08:05:14.898Z,54.30
2023-05-26T08:06:25.640Z,54.00
2023-05-26T08:07:15.143Z,53.71
2023-05-26T08:08:17.407Z,53.75
2023-05-26T08:09:14.627Z,53.73
2023-05-26T08:10:14.621Z,53.50
2023-05-26T08:11:14.598Z,53.30
2023-05-26T08:12:13.607Z,53.72
2023-05-26T08:13:14.568Z,53.55
2023-05-26T08:14:14.558Z,53.62
2023-05-26T08:15:15.665Z,53.44
2023-05-26T08:16:14.658Z,53.78
2023-05-26T08:17:14.849Z,53.28
2023-05-26T08:18:20.521Z,53.15
2023-05-26T08:19:14.527Z,53.35
2023-05-26T08:20:14.565Z,53.17
2023-05-26T08:21:14.561Z,53.37
2023-05-26T08:22:14.516Z,53.03
2023-05-26T08:23:13.516Z,53.31
2023-05-26T08:24:13.517Z,53.07
2023-05-26T08:25:14.518Z,53.04
2023-05-26T08:26:13.496Z,52.56
2023-05-26T08:27:13.473Z,52.72
2023-05-26T08:28:14.503Z,52.87
2023-05-26T08:29:14.465Z,52.78
2023-05-26T08:30:13.454Z,52.44
2023-05-26T08:31:13.493Z,53.15
2023-05-26T08:32:13.435Z,53.13
2023-05-26T08:33:14.444Z,52.75
2023-05-26T08:34:14.417Z,52.69
2023-05-26T08:35:14.411Z,52.37
2023-05-26T08:36:14.399Z,52.05
2023-05-26T08:37:14.445Z,52.51
2023-05-26T08:38:14.382Z,52.52
2023-05-26T08:39:13.389Z,52.92
2023-05-26T08:40:14.389Z,55.25
2023-05-26T08:41:13.395Z,53.58
2023-05-26T08:42:14.377Z,53.29
2023-05-26T08:43:14.373Z,53.65
2023-05-26T08:44:14.345Z,54.91
2023-05-26T08:45:14.337Z,53.91
2023-05-26T08:46:14.346Z,54.45
2023-05-26T08:47:14.389Z,53.95
2023-05-26T08:48:14.385Z,53.87
2023-05-26T08:49:14.394Z,54.57
2023-05-26T08:50:13.308Z,56.54
2023-05-26T08:51:14.303Z,56.57
2023-05-26T08:52:14.281Z,56.01
2023-05-26T08:53:16.140Z,55.06
2023-05-26T08:54:14.288Z,55.54
2023-05-26T08:55:13.268Z,53.63
2023-05-26T08:56:13.273Z,53.13
2023-05-26T08:57:13.275Z,54.09
2023-05-26T08:58:14.247Z,54.19
2023-05-26T08:59:14.247Z,53.50
2023-05-26T09:00:13.344Z,54.00
2023-05-26T09:01:14.316Z,53.84
2023-05-26T09:02:14.232Z,53.90
2023-05-26T09:03:14.278Z,53.93
2023-05-26T09:04:13.372Z,53.83
2023-05-26T09:05:14.192Z,53.68
2023-05-26T09:06:13.188Z,53.95
2023-05-26T09:08:14.196Z,53.95
2023-05-26T09:09:13.216Z,53.87
2023-05-26T09:10:14.194Z,54.02
2023-05-26T09:11:14.167Z,53.97
2023-05-26T09:12:14.159Z,53.54
2023-05-26T09:13:14.149Z,53.65
2023-05-26T09:14:14.142Z,53.53
2023-05-26T09:15:14.145Z,53.59
2023-05-26T09:16:17.824Z,53.51
2023-05-26T09:17:14.186Z,53.43
2023-05-26T09:18:14.170Z,53.20
2023-05-26T09:19:14.106Z,53.21
2023-05-26T09:20:14.128Z,53.26
2023-05-26T09:21:13.093Z,53.18
2023-05-26T09:22:14.078Z,52.99
2023-05-26T09:23:14.066Z,52.92
2023-05-26T09:24:13.084Z,52.82
2023-05-26T09:25:14.208Z,52.56
2023-05-26T09:26:13.149Z,52.54
2023-05-26T09:27:14.191Z,52.48
2023-05-26T09:28:14.240Z,52.37
2023-05-26T09:29:14.296Z,52.58
2023-05-26T09:30:14.421Z,52.46
2023-05-26T09:31:14.396Z,51.99
2023-05-26T09:32:14.434Z,51.49
2023-05-26T09:33:14.481Z,51.72
2023-05-26T09:34:14.491Z,51.71
2023-05-26T09:35:14.545Z,52.02
2023-05-26T09:36:14.601Z,51.83
2023-05-26T09:37:14.611Z,51.79
2023-05-26T09:38:14.688Z,51.79
2023-05-26T09:39:13.769Z,52.01
2023-05-26T09:40:14.757Z,51.94
2023-05-26T09:41:14.923Z,52.04
2023-05-26T09:42:14.842Z,52.14
2023-05-26T09:43:14.868Z,52.08
2023-05-26T09:44:13.910Z,51.89
2023-05-26T09:45:14.956Z,51.30
2023-05-26T09:46:14.998Z,51.37
2023-05-26T09:47:15.050Z,51.36
2023-05-26T09:48:14.090Z,51.07
2023-05-26T09:49:15.144Z,50.74
2023-05-26T09:50:15.467Z,50.45
2023-05-26T09:51:17.201Z,50.57
2023-05-26T09:52:15.173Z,50.73
2023-05-26T09:53:15.174Z,49.65
2023-05-26T09:54:14.140Z,50.24
2023-05-26T09:55:14.129Z,50.33
2023-05-26T09:56:19.516Z,49.99
2023-05-26T09:57:15.945Z,48.08
2023-05-26T09:58:14.230Z,48.48
2023-05-26T09:59:14.105Z,47.75
2023-05-26T10:00:15.131Z,47.89
2023-05-26T10:01:15.116Z,48.21
2023-05-26T10:02:15.121Z,48.03
2023-05-26T10:03:15.078Z,48.12
2023-05-26T10:04:15.068Z,48.23
2023-05-26T10:05:15.150Z,48.46
2023-05-26T10:06:15.129Z,48.14
2023-05-26T10:07:15.035Z,47.29
2023-05-26T10:08:15.032Z,47.79
2023-05-26T10:09:15.018Z,48.23
2023-05-26T10:10:15.024Z,48.12
2023-05-26T10:11:15.008Z,48.59
2023-05-26T10:12:15.013Z,48.94
2023-05-26T10:13:14.036Z,48.99
2023-05-26T10:14:14.983Z,49.04
2023-05-26T10:15:14.975Z,49.02
2023-05-26T10:16:15.108Z,48.94
2023-05-26T10:17:15.061Z,49.27
2023-05-26T10:18:15.179Z,49.14
2023-05-26T10:19:15.099Z,49.20
2023-05-26T10:20:14.283Z,49.77
2023-05-26T10:21:15.173Z,49.44
2023-05-26T10:22:15.208Z,49.54
2023-05-26T10:23:14.237Z,49.97
2023-05-26T10:24:14.284Z,49.79
2023-05-26T10:25:14.349Z,49.83
2023-05-26T10:26:15.376Z,50.04
2023-05-26T10:27:15.428Z,50.17
2023-05-26T10:28:14.465Z,50.34
2023-05-26T10:29:15.537Z,50.18
2023-05-26T10:30:15.570Z,50.12
2023-05-26T10:31:15.650Z,50.48
2023-05-26T10:32:14.687Z,50.97
2023-05-26T10:33:15.784Z,50.66
2023-05-26T10:34:15.759Z,51.05
2023-05-26T10:35:15.795Z,50.69
2023-05-26T10:36:15.812Z,50.79
2023-05-26T10:37:15.807Z,50.95
2023-05-26T10:38:14.849Z,50.82
2023-05-26T10:39:15.892Z,50.05
2023-05-26T10:40:15.893Z,51.08
2023-05-26T10:41:15.947Z,50.59
2023-05-26T10:42:14.938Z,51.12
2023-05-26T10:43:15.972Z,50.60
2023-05-26T10:44:16.039Z,50.48
2023-05-26T10:45:16.100Z,51.09
2023-05-26T10:46:16.188Z,50.84
2023-05-26T10:47:16.108Z,50.56
2023-05-26T10:48:15.172Z,51.46
2023-05-26T10:49:15.202Z,51.75
2023-05-26T10:50:15.237Z,52.08
2023-05-26T10:51:16.270Z,52.28
2023-05-26T10:52:15.266Z,52.11
2023-05-26T10:53:16.249Z,52.33
2023-05-26T10:54:15.277Z,52.51
2023-05-26T10:55:16.277Z,52.58
2023-05-26T10:56:16.310Z,52.56
2023-05-26T10:57:16.293Z,52.66
2023-05-26T10:58:16.297Z,52.83
2023-05-26T10:59:16.354Z,53.02
2023-05-26T11:00:16.406Z,52.93
2023-05-26T11:01:15.477Z,52.75
2023-05-26T11:02:16.404Z,52.57
2023-05-26T11:03:15.575Z,52.59
2023-05-26T11:04:15.443Z,52.92
2023-05-26T11:05:16.498Z,52.53
2023-05-26T11:06:16.485Z,52.49
2023-05-26T11:07:16.561Z,52.62
2023-05-26T11:08:16.535Z,52.77
2023-05-26T11:09:15.555Z,52.69
2023-05-26T11:10:16.564Z,52.75
2023-05-26T11:11:16.582Z,52.88
2023-05-26T11:12:16.601Z,52.81
2023-05-26T11:13:15.627Z,52.76
2023-05-26T11:14:15.652Z,52.56
2023-05-26T11:15:16.684Z,52.80
2023-05-26T11:16:16.704Z,52.95
2023-05-26T11:17:15.775Z,52.76
2023-05-26T11:18:16.886Z,52.84
2023-05-26T11:19:15.786Z,52.88
2023-05-26T11:20:16.961Z,52.80
2023-05-26T11:21:16.846Z,52.74
2023-05-26T11:22:16.880Z,52.77
2023-05-26T11:23:16.902Z,52.78
2023-05-26T11:24:16.957Z,52.80
2023-05-26T11:25:16.995Z,52.68
2023-05-26T11:26:16.020Z,52.85
2023-05-26T11:27:16.039Z,52.98
2023-05-26T11:28:16.066Z,52.92
2023-05-26T11:29:17.085Z,53.03
2023-05-26T11:30:16.248Z,52.93
2023-05-26T11:31:16.188Z,52.94
2023-05-26T11:32:16.185Z,53.02
2023-05-26T11:33:17.262Z,53.20
2023-05-26T11:34:16.244Z,53.05
2023-05-26T11:35:17.283Z,53.11
2023-05-26T11:36:17.312Z,52.91
2023-05-26T11:37:17.359Z,52.74
2023-05-26T11:38:16.383Z,52.80
2023-05-26T11:39:17.418Z,52.93
2023-05-26T11:40:17.470Z,52.91
2023-05-26T11:41:16.463Z,52.71
2023-05-26T11:42:16.508Z,52.92
2023-05-26T11:43:16.536Z,52.67
2023-05-26T11:44:17.582Z,52.85
2023-05-26T11:45:17.592Z,53.02
2023-05-26T11:46:16.677Z,53.01
2023-05-26T11:47:17.665Z,53.01
2023-05-26T11:48:17.701Z,52.93
2023-05-26T11:49:17.749Z,52.92
2023-05-26T11:50:17.824Z,52.81
2023-05-26T11:51:16.786Z,52.79
2023-05-26T11:52:16.850Z,52.78
2023-05-26T11:54:16.951Z,53.10
2023-05-26T11:55:17.920Z,53.00
2023-05-26T11:56:17.945Z,52.94
2023-05-26T11:57:16.983Z,52.91
2023-05-26T11:58:18.005Z,52.86
2023-05-26T11:59:17.056Z,52.89
2023-05-26T12:00:18.096Z,53.07
2023-05-26T12:01:18.107Z,53.05
2023-05-26T12:02:17.147Z,52.98
2023-05-26T12:03:17.191Z,52.93
2023-05-26T12:04:17.232Z,53.02
2023-05-26T12:05:18.255Z,52.87
2023-05-26T12:06:18.252Z,53.02
2023-05-26T12:07:18.286Z,52.99
2023-05-26T12:08:18.335Z,52.98
2023-05-26T12:09:17.357Z,53.01
2023-05-26T12:10:18.448Z,53.03
2023-05-26T12:11:18.421Z,53.02
2023-05-26T12:12:17.462Z,53.17
2023-05-26T12:13:18.489Z,52.95
2023-05-26T12:14:18.576Z,53.00
2023-05-26T12:15:18.577Z,53.04
2023-05-26T12:16:18.664Z,53.05
2023-05-26T12:17:18.749Z,53.04
2023-05-26T12:18:18.780Z,53.11
2023-05-26T12:19:17.719Z,52.98
2023-05-26T12:20:31.712Z,52.97
2023-05-26T12:21:18.763Z,53.01
2023-05-26T12:22:17.785Z,52.88
2023-05-26T12:23:18.816Z,53.07
2023-05-26T12:24:18.721Z,52.98
2023-05-26T12:25:17.718Z,52.85
2023-05-26T12:26:17.707Z,52.90
2023-05-26T12:27:17.695Z,52.98
2023-05-26T12:28:17.699Z,52.88
2023-05-26T12:29:18.689Z,52.94
2023-05-26T12:30:18.683Z,52.85
2023-05-26T12:31:17.661Z,52.74
2023-05-26T12:32:17.724Z,52.71
2023-05-26T12:33:18.715Z,52.66
2023-05-26T12:34:17.738Z,52.80
2023-05-26T12:35:17.788Z,52.90
2023-05-26T12:36:18.866Z,52.87
2023-05-26T12:37:18.886Z,52.88
2023-05-26T12:38:18.903Z,52.90
2023-05-26T12:39:18.939Z,52.82
2023-05-26T12:40:18.988Z,52.74
2023-05-26T12:41:18.014Z,52.65
2023-05-26T12:42:18.142Z,52.80
2023-05-26T12:43:19.101Z,52.72
2023-05-26T12:44:19.151Z,52.33
2023-05-26T12:45:18.203Z,52.50
2023-05-26T12:46:18.246Z,52.44
2023-05-26T12:47:18.324Z,52.37
2023-05-26T12:48:19.418Z,52.48
2023-05-26T12:49:19.488Z,52.54
2023-05-26T12:50:19.403Z,52.45
2023-05-26T12:51:19.474Z,52.33
2023-05-26T12:52:18.499Z,52.23
2023-05-26T12:53:18.554Z,52.30
2023-05-26T12:54:19.584Z,52.31